Rogers Spring, Nevada Weather observations

Data are for 10 minute period ending at time listed.
 Day   Time   Solar   Ave.   Ave.  Ave.  Vector  Max.   Baro.   Total    
  of    of     Rad.   Air    Rel.  Wind   Wind   Wind  Press.  Precip.   
Year   Day            Temp.  Hum.  Speed  Dir.   Gust                    
2016   (PST)  Kw/m2    F      %     mph   deg.    mph    mb.     in.     
-------------------------------------------------------------------------
 338    7:50   0.00   38.3    28    6.1   329     9.3   942.7    0.00 
 338    8:00   0.00   38.9    27    6.5   326    10.2   942.7    0.00 
 338    8:10   0.00   39.8    26    7.1   324    13.2   942.6    0.00 
 338    8:20   0.00   40.7    25    7.5   326    13.4   942.7    0.00 
 338    8:30   0.00   41.9    24    7.8   326    11.4   942.7    0.00 
 338    8:40   0.00   43.6    23    7.7   326    11.2   942.7    0.00 
 338    8:50   0.00   44.5    22    7.3   318    11.8   942.6    0.00 
 338    9:00   0.00   45.8    21    7.4   317    11.0   942.5    0.00 
 338    9:10   0.00   46.9    20    8.6   316    13.4   942.3    0.00 
 338    9:20   0.00   48.1    18    8.6   321    12.9   942.3    0.00 
 338    9:30   0.00   48.8    17    7.8   314    11.9   942.4    0.00 
 338    9:40   0.00   48.8    17    8.1   316    12.5   942.3    0.00 
 338    9:50   0.00   49.0    17    8.3   310    14.5   942.0    0.00 
 338   10:00   0.00   50.0    16    8.0   311    13.7   941.9    0.00 
 338   10:10   0.00   50.6    16    7.8   312    11.8   941.9    0.00 
 338   10:20   0.00   51.3    15    6.8   324    10.8   941.8    0.00 
 338   10:30   0.00   51.5    15    7.5   323    13.6   941.7    0.00 
 338   10:40   0.00   52.1    15    7.7   323    12.4   941.5    0.00 
 338   10:50   0.00   53.2    14    7.2   324    12.4   941.4    0.00 
 338   11:00   0.00   54.1    14    6.6   320    11.6   941.4    0.00 
 338   11:10   0.00   55.7    13    6.8   352    11.8   941.0    0.00 
 338   11:20   0.00   56.2    12    7.9    21    13.4   941.0    0.00 
 338   11:30   0.00   56.8    12    8.1    25    13.6   941.0    0.00 
 338   11:40   0.00   57.3    12    5.9   338    10.9   940.9    0.00 
 338   11:50   0.00   57.2    12    5.9   325     9.9   940.7    0.00 
 338   12:00   0.00   57.7    12    6.2   330     9.7   940.5    0.00 
 338   12:10   0.00   58.2    12    5.8   330    10.4   940.4    0.00 
 338   12:20   0.00   58.2    12    5.4   340    10.0   940.3    0.00 
 338   12:30   0.00   59.3    12    6.2     0    14.3   940.2    0.00 
 338   12:40   0.00   59.8    12    5.9   357    10.5   940.1    0.00 
 338   12:50   0.00   60.5    12    5.5   356    10.2   939.8    0.00 
 338   13:00   0.00   60.7    11    4.3   340     8.6   939.7    0.00 
 338   13:10   0.00   60.9    11    4.8    14     8.6   939.5    0.00 
 338   13:20   0.00   60.9    11    4.7   341     9.1   939.4    0.00 
 338   13:30   0.00   61.4    11    5.4   349     9.1   939.3    0.00 
 338   13:40   0.00   61.9    11    5.1   355     8.3   939.3    0.00 
 338   13:50   0.00   62.2    12    5.1   348     9.8   939.2    0.00 
 338   14:00   0.00   62.4    12    5.7    10     8.8   939.2    0.00 
 338   14:10   0.00   62.2    12    5.3    45     8.9   939.1    0.00 
 338   14:20   0.00   62.5    12    4.3    51     7.9   939.0    0.00 
 338   14:30   0.00   62.7    12    4.9    10    10.6   939.1    0.00 
 338   14:40   0.00   62.9    11    4.7    50     8.8   938.9    0.00 
 338   14:50   0.00   62.7    12    5.4    34    10.1   938.9    0.00 
 338   15:00   0.00   62.6    12    4.0    16     8.3   939.0    0.00 
 338   15:10   0.00   62.7    12    4.3    35     8.3   938.9    0.00 
 338   15:20   0.00   62.3    12    3.9    39     6.7   938.8    0.00 
 338   15:30   0.00   62.2    12    2.9    46     5.8   938.9    0.00 
 338   15:40   0.00   61.9    12    3.4    47     8.1   938.9    0.00 
 338   15:50   0.00   60.8    13    4.4    54     7.5   938.9    0.00 
 338   16:00   0.00   60.2    13    2.7    55     5.0   938.8    0.00 
 338   16:10   0.00   59.2    15    1.5    49     2.8   938.8    0.00 
 338   16:20   0.00   57.9    15    1.2    67     2.2   938.6    0.00 
 338   16:30   0.00   54.4    18    1.4    45     2.9   938.5    0.00 
 338   16:40   0.00   50.5    21    0.2   190     2.3   938.4    0.00 
 338   16:50   0.00   48.3    22    0.6   136     2.3   938.3    0.00 
 338   17:00   0.00   45.9    24    0.8    55     2.2   938.3    0.00 
 338   17:10   0.00   45.7    24    1.3    63     3.1   938.3    0.00 
 338   17:20   0.00   44.3    30    1.8    50     2.8   938.4    0.00 
 338   17:30   0.00   42.8    28    1.4    30     2.6   938.4    0.00 
 338   17:40   0.00   42.8    25    0.7    43     2.0   938.6    0.00 
 338   17:50   0.00   41.8    29    0.8   357     1.5   938.8    0.00 
 338   18:00   0.00   43.1    26    2.3    62     3.1   938.9    0.00 
 338   18:10   0.00   44.9    24    2.8    73     4.1   938.9    0.00 
 338   18:20   0.00   44.1    25    3.1    59     4.0   938.9    0.00 
 338   18:30   0.00   43.7    26    3.4    55     4.3   938.9    0.00 
 338   18:40   0.00   43.1    26    3.3    50     4.7   939.0    0.00 
 338   18:50   0.00   42.0    28    3.0    31     4.8   939.2    0.00 
 338   19:00   0.00   42.3    28    1.8    22     3.9   939.2    0.00 
 338   19:10   0.00   41.5    28    0.5   189     1.6   939.3    0.00 
 338   19:20   0.00   38.6    29    1.7   208     2.9   939.4    0.00 
 338   19:30   0.00   40.4    30    1.1   263     3.0   939.4    0.00 
 338   19:40   0.00   41.4    30    0.8   320     2.4   939.5    0.00 
 338   19:50   0.00   41.0    35    1.3    49     2.6   939.5    0.00 
 338   20:00   0.00   42.3    31    2.8    71     3.8   939.5    0.00 
 338   20:10   0.00   42.5    31    2.4    63     3.1   939.6    0.00 
 338   20:20   0.00   40.4    33    3.2    81     4.8   939.6    0.00 
 338   20:30   0.00   41.9    32    1.8    76     4.2   939.5    0.00 
 338   20:40   0.00   42.7    30    4.4    91     7.5   939.6    0.00 
 338   20:50   0.00   45.7    26    3.9    85     7.0   939.6    0.00 
 338   21:00   0.00   43.3    30    2.7    56     3.9   939.6    0.00 
 338   21:10   0.00   39.2    34    2.4    40     3.8   939.7    0.00 
 338   21:20   0.00   37.2    40    3.0    38     4.1   939.7    0.00 
 338   21:30   0.00   38.7    34    3.8    64     5.3   939.8    0.00 
 338   21:40   0.00   40.2    33    2.0    48     3.9   939.8    0.00 
 338   21:50   0.00   37.1    37    1.2    39     2.5   939.9    0.00 
 338   22:00   0.00   37.4    39    1.5    56     3.0   939.9    0.00 
 338   22:10   0.00   35.7    39    1.9    75     3.4   940.0    0.00 
 338   22:20   0.00   34.7    43    1.4   305     3.8   940.0    0.00 
 338   22:30   0.00   32.0    50    0.7   283     1.9   940.1    0.00 
 338   22:40   0.00   33.7    42    1.4    51     1.8   940.2    0.00 
 338   22:50   0.00   33.8    46    2.7    51     3.4   940.3    0.00 
 338   23:00   0.00   31.8    53    1.4    55     2.3   940.3    0.00 
 338   23:10   0.00   33.0    44    1.1    55     2.3   940.3    0.00 
 338   23:20   0.00   34.2    40    1.0    82     2.6   940.2    0.00 
 338   23:30   0.00   33.6    46    1.6    54     2.8   940.2    0.00 
 338   23:40   0.00   33.7    41    1.4    82     2.9   940.2    0.00 
 338   23:50   0.00   35.9    39    3.3    72     5.8   940.2    0.00 
 339    0:00   0.00   39.6    32    3.2    75     4.2   940.1    0.00 
 339    0:10   0.00   41.8    30    3.5    83     4.7   940.1    0.00 
 339    0:20   0.00   40.9    30    3.0    76     4.8   940.0    0.00 
 339    0:30   0.00   37.7    35    3.0   203     6.8   940.0    0.00 
 339    0:40   0.00   33.2    40    3.1   164     5.2   940.1    0.00 
 339    0:50   0.00   33.7    40    2.1   147     3.7   940.2    0.00 
 339    1:00   0.00   33.6    43    1.2    62     2.4   940.1    0.00 
 339    1:10   0.00   30.6    52    1.7   338     3.9   940.0    0.00 
 339    1:20   0.00   29.2    52    1.5    36     2.9   940.0    0.00 
 339    1:30   0.00   31.3    45    2.4    61     3.8   940.0    0.00 
 339    1:40   0.00   32.5    43    2.1    64     3.3   939.9    0.00 
 339    1:50   0.00   34.1    40    3.3    85     4.6   939.7    0.00 
 339    2:00   0.00   35.6    41    1.7    82     3.4   939.8    0.00 
 339    2:10   0.00   38.4    34    3.0   104     4.5   939.8    0.00 
 339    2:20   0.00   40.1    33    2.1    72     3.5   939.8    0.00 
 339    2:30   0.00   36.1    42    2.3    37     3.2   939.7    0.00 
 339    2:40   0.00   34.9    46    2.3    31     4.2   939.7    0.00 
 339    2:50   0.00   33.4    45    2.8   342     3.8   939.7    0.00 
 339    3:00   0.00   33.0    43    2.6    79     4.4   939.7    0.00 
 339    3:10   0.00   34.2    41    3.7    64     5.3   939.6    0.00 
 339    3:20   0.00   36.5    38    3.4    83     5.9   939.6    0.00 
 339    3:30   0.00   40.5    32    2.4    94     5.6   939.5    0.00 
 339    3:40   0.00   36.0    38    2.3   196     5.3   939.5    0.00 
 339    3:50   0.00   37.2    36    1.6   136     4.0   939.5    0.00 
 339    4:00   0.00   35.8    39    0.7   288     2.8   939.4    0.00 
 339    4:10   0.00   39.3    35    3.5   114     8.3   939.3    0.00 
 339    4:20   0.00   42.6    30    3.9   103     7.4   939.2    0.00 
 339    4:30   0.00   43.5    28    4.2   103     8.3   939.2    0.00 
 339    4:40   0.00   40.0    32    2.8   236     5.0   939.2    0.00 
 339    4:50   0.00   31.9    42    2.1   235     4.2   939.3    0.00 
 339    5:00   0.00   29.1    49    0.6   209     3.1   939.4    0.00 
 339    5:10   0.00   28.6    49    0.0   169     0.5   939.5    0.00 
 339    5:20   0.00   27.3    52    0.8    76     2.6   939.6    0.00 
 339    5:30   0.00   26.3    50    0.2    68     1.7   939.7    0.00 
 339    5:40   0.00   25.2    52    0.0     0     0.0   939.7    0.00 
 339    5:50   0.00   25.6    54    1.5    57     2.3   939.8    0.00 
 339    6:00   0.00   27.4    52    2.5    61     3.9   939.7    0.00 
 339    6:10   0.00   28.0    50    2.9    68     4.1   939.7    0.00 
 339    6:20   0.00   29.3    51    1.6    12     2.9   939.6    0.00 
 339    6:30   0.00   27.6    51    2.8    57     3.5   939.5    0.00 
 339    6:40   0.00   27.3    50    3.5    60     5.2   939.5    0.00 
 339    6:50   0.00   26.9    50    3.6    70     5.6   939.6    0.00 
 339    7:00   0.00   28.2    48    3.2    86     4.9   939.7    0.00 
 339    7:10   0.00   29.7    46    2.1    80     3.2   939.8    0.00 
 339    7:20   0.00   31.7    43    1.4   102     3.4   939.9    0.00 
 339    7:30   0.00   33.7    40    2.3   106     3.1   939.8    0.00 
 339    7:40   0.00   36.6    38    1.1    15     3.3   939.8    0.00 

Return to Rogers Spring graphs page.


Western Regional Climate Center,wrcc@dri.edu